sensor_id;sensor_type;location;lat;lon;timestamp;pressure;altitude;pressure_sealevel;temperature;humidity
84271;BME280;74614;50.032;19.566;2024-02-21T00:01:28;99342.01;;;5.10;73.41
84271;BME280;74614;50.032;19.566;2024-02-21T00:03:27;99344.43;;;5.11;73.43
84271;BME280;74614;50.032;19.566;2024-02-21T00:05:53;99341.79;;;5.11;73.50
84271;BME280;74614;50.032;19.566;2024-02-21T00:08:26;99342.52;;;5.17;73.42
84271;BME280;74614;50.032;19.566;2024-02-21T00:10:31;99351.42;;;5.27;73.02
84271;BME280;74614;50.032;19.566;2024-02-21T00:12:26;99344.99;;;5.30;72.97
84271;BME280;74614;50.032;19.566;2024-02-21T00:14:33;99341.42;;;5.33;72.80
84271;BME280;74614;50.032;19.566;2024-02-21T00:16:26;99347.42;;;5.36;72.75
84271;BME280;74614;50.032;19.566;2024-02-21T00:18:35;99342.08;;;5.36;72.70
84271;BME280;74614;50.032;19.566;2024-02-21T00:20:33;99337.30;;;5.36;72.55
84271;BME280;74614;50.032;19.566;2024-02-21T00:22:40;99340.06;;;5.36;72.45
84271;BME280;74614;50.032;19.566;2024-02-21T00:25:32;99335.12;;;5.34;72.40
84271;BME280;74614;50.032;19.566;2024-02-21T00:27:31;99331.61;;;5.34;72.33
84271;BME280;74614;50.032;19.566;2024-02-21T00:29:28;99329.63;;;5.35;72.20
84271;BME280;74614;50.032;19.566;2024-02-21T00:31:28;99328.15;;;5.29;72.35
84271;BME280;74614;50.032;19.566;2024-02-21T00:33:27;99324.72;;;5.29;72.16
84271;BME280;74614;50.032;19.566;2024-02-21T00:35:28;99320.96;;;5.24;72.34
84271;BME280;74614;50.032;19.566;2024-02-21T00:37:27;99321.21;;;5.19;72.37
84271;BME280;74614;50.032;19.566;2024-02-21T00:39:27;99316.31;;;5.15;72.50
84271;BME280;74614;50.032;19.566;2024-02-21T00:41:26;99319.77;;;5.16;72.40
84271;BME280;74614;50.032;19.566;2024-02-21T00:43:30;99318.02;;;5.18;72.22
84271;BME280;74614;50.032;19.566;2024-02-21T00:45:27;99312.05;;;5.16;72.27
84271;BME280;74614;50.032;19.566;2024-02-21T00:47:30;99309.94;;;5.12;72.22
84271;BME280;74614;50.032;19.566;2024-02-21T00:49:26;99308.94;;;5.05;72.38
84271;BME280;74614;50.032;19.566;2024-02-21T00:51:25;99310.98;;;5.05;72.32
84271;BME280;74614;50.032;19.566;2024-02-21T00:53:36;99303.69;;;5.01;72.41
84271;BME280;74614;50.032;19.566;2024-02-21T00:56:26;99304.40;;;4.97;72.45
84271;BME280;74614;50.032;19.566;2024-02-21T00:58:31;99304.70;;;4.94;72.69
84271;BME280;74614;50.032;19.566;2024-02-21T01:00:25;99298.20;;;4.89;72.85
84271;BME280;74614;50.032;19.566;2024-02-21T01:02:33;99290.53;;;4.86;72.97
84271;BME280;74614;50.032;19.566;2024-02-21T01:04:25;99291.79;;;4.90;72.77
84271;BME280;74614;50.032;19.566;2024-02-21T01:06:31;99288.32;;;4.89;72.78
84271;BME280;74614;50.032;19.566;2024-02-21T01:08:27;99287.71;;;4.91;72.69
84271;BME280;74614;50.032;19.566;2024-02-21T01:10:37;99282.74;;;4.93;72.58
84271;BME280;74614;50.032;19.566;2024-02-21T01:13:26;99277.28;;;4.98;72.63
84271;BME280;74614;50.032;19.566;2024-02-21T01:15:25;99270.50;;;5.01;72.70
84271;BME280;74614;50.032;19.566;2024-02-21T01:17:24;99280.14;;;5.08;72.46
84271;BME280;74614;50.032;19.566;2024-02-21T01:19:26;99281.95;;;5.06;72.47
84271;BME280;74614;50.032;19.566;2024-02-21T01:21:26;99283.76;;;5.03;72.57
84271;BME280;74614;50.032;19.566;2024-02-21T01:23:29;99285.63;;;5.03;72.56
84271;BME280;74614;50.032;19.566;2024-02-21T01:25:25;99283.51;;;5.00;72.67
84271;BME280;74614;50.032;19.566;2024-02-21T01:27:27;99275.77;;;5.00;72.45
84271;BME280;74614;50.032;19.566;2024-02-21T01:29:29;99275.93;;;4.97;72.70
84271;BME280;74614;50.032;19.566;2024-02-21T01:31:28;99266.50;;;4.96;72.70
84271;BME280;74614;50.032;19.566;2024-02-21T01:33:26;99265.20;;;5.01;72.58
84271;BME280;74614;50.032;19.566;2024-02-21T01:35:26;99250.24;;;5.02;72.61
84271;BME280;74614;50.032;19.566;2024-02-21T01:37:28;99259.76;;;5.13;72.23
84271;BME280;74614;50.032;19.566;2024-02-21T01:39:26;99265.07;;;5.21;72.20
84271;BME280;74614;50.032;19.566;2024-02-21T01:41:26;99266.25;;;5.28;72.04
84271;BME280;74614;50.032;19.566;2024-02-21T01:43:30;99263.01;;;5.37;72.15
84271;BME280;74614;50.032;19.566;2024-02-21T01:45:25;99263.97;;;5.45;71.57
84271;BME280;74614;50.032;19.566;2024-02-21T01:47:27;99264.54;;;5.44;71.53
84271;BME280;74614;50.032;19.566;2024-02-21T01:49:26;99265.32;;;5.45;71.56
84271;BME280;74614;50.032;19.566;2024-02-21T01:51:26;99258.21;;;5.42;71.63
84271;BME280;74614;50.032;19.566;2024-02-21T01:53:30;99260.14;;;5.41;71.64
84271;BME280;74614;50.032;19.566;2024-02-21T01:55:28;99258.29;;;5.42;71.62
84271;BME280;74614;50.032;19.566;2024-02-21T01:57:34;99257.81;;;5.40;71.50
84271;BME280;74614;50.032;19.566;2024-02-21T02:00:19;99258.42;;;5.38;71.53
84271;BME280;74614;50.032;19.566;2024-02-21T02:02:25;99257.02;;;5.37;71.60
84271;BME280;74614;50.032;19.566;2024-02-21T02:04:20;99258.21;;;5.40;71.65
84271;BME280;74614;50.032;19.566;2024-02-21T02:06:26;99256.61;;;5.43;71.62
84271;BME280;74614;50.032;19.566;2024-02-21T02:08:20;99256.33;;;5.45;71.55
84271;BME280;74614;50.032;19.566;2024-02-21T02:10:28;99254.68;;;5.47;71.55
84271;BME280;74614;50.032;19.566;2024-02-21T02:12:20;99252.10;;;5.47;71.58
84271;BME280;74614;50.032;19.566;2024-02-21T02:14:27;99253.51;;;5.48;71.46
84271;BME280;74614;50.032;19.566;2024-02-21T02:16:21;99249.63;;;5.49;71.41
84271;BME280;74614;50.032;19.566;2024-02-21T02:18:33;99251.24;;;5.49;71.48
84271;BME280;74614;50.032;19.566;2024-02-21T02:21:30;99248.78;;;5.54;71.51
84271;BME280;74614;50.032;19.566;2024-02-21T02:23:27;99252.95;;;5.60;71.50
84271;BME280;74614;50.032;19.566;2024-02-21T02:25:26;99246.57;;;5.65;71.49
84271;BME280;74614;50.032;19.566;2024-02-21T02:27:32;99246.43;;;5.72;71.45
84271;BME280;74614;50.032;19.566;2024-02-21T02:30:26;99244.07;;;5.73;71.27
84271;BME280;74614;50.032;19.566;2024-02-21T02:32:24;99246.93;;;5.74;71.22
84271;BME280;74614;50.032;19.566;2024-02-21T02:34:25;99237.86;;;5.72;71.22
84271;BME280;74614;50.032;19.566;2024-02-21T02:36:20;99238.68;;;5.71;71.17
84271;BME280;74614;50.032;19.566;2024-02-21T02:38:26;99231.83;;;5.69;71.19
84271;BME280;74614;50.032;19.566;2024-02-21T02:40:21;99231.82;;;5.68;71.20
84271;BME280;74614;50.032;19.566;2024-02-21T02:42:27;99233.50;;;5.70;71.33
84271;BME280;74614;50.032;19.566;2024-02-21T02:44:24;99230.83;;;5.80;71.14
84271;BME280;74614;50.032;19.566;2024-02-21T02:46:25;99235.56;;;5.81;71.08
84271;BME280;74614;50.032;19.566;2024-02-21T02:49:29;99235.98;;;5.77;70.99
84271;BME280;74614;50.032;19.566;2024-02-21T02:51:28;99233.83;;;5.75;71.03
84271;BME280;74614;50.032;19.566;2024-02-21T02:53:30;99230.99;;;5.63;71.17
84271;BME280;74614;50.032;19.566;2024-02-21T02:55:30;99231.85;;;5.57;71.35
84271;BME280;74614;50.032;19.566;2024-02-21T02:57:34;99229.42;;;5.57;71.53
84271;BME280;74614;50.032;19.566;2024-02-21T03:01:34;99231.85;;;5.49;71.39
84271;BME280;74614;50.032;19.566;2024-02-21T03:03:27;99230.36;;;5.48;71.48
84271;BME280;74614;50.032;19.566;2024-02-21T03:05:26;99228.65;;;5.46;71.55
84271;BME280;74614;50.032;19.566;2024-02-21T03:07:29;99226.52;;;5.49;71.52
84271;BME280;74614;50.032;19.566;2024-02-21T03:09:29;99225.46;;;5.50;71.44
84271;BME280;74614;50.032;19.566;2024-02-21T03:11:28;99223.10;;;5.49;71.49
84271;BME280;74614;50.032;19.566;2024-02-21T03:13:26;99221.73;;;5.49;71.43
84271;BME280;74614;50.032;19.566;2024-02-21T03:15:27;99222.66;;;5.46;71.47
84271;BME280;74614;50.032;19.566;2024-02-21T03:17:27;99222.66;;;5.43;71.49
84271;BME280;74614;50.032;19.566;2024-02-21T03:19:31;99222.45;;;5.37;71.48
84271;BME280;74614;50.032;19.566;2024-02-21T03:21:27;99223.38;;;5.36;71.44
84271;BME280;74614;50.032;19.566;2024-02-21T03:23:27;99224.42;;;5.33;71.51
84271;BME280;74614;50.032;19.566;2024-02-21T03:25:28;99223.80;;;5.32;71.59
84271;BME280;74614;50.032;19.566;2024-02-21T03:27:26;99226.40;;;5.31;71.60
84271;BME280;74614;50.032;19.566;2024-02-21T03:29:26;99222.40;;;5.30;71.60
84271;BME280;74614;50.032;19.566;2024-02-21T03:31:30;99227.90;;;5.27;71.65
84271;BME280;74614;50.032;19.566;2024-02-21T03:33:31;99225.99;;;5.29;71.62
84271;BME280;74614;50.032;19.566;2024-02-21T03:35:28;99227.82;;;5.28;71.62
84271;BME280;74614;50.032;19.566;2024-02-21T03:37:26;99226.36;;;5.30;71.61
84271;BME280;74614;50.032;19.566;2024-02-21T03:39:31;99227.28;;;5.32;71.62
84271;BME280;74614;50.032;19.566;2024-02-21T03:41:27;99227.35;;;5.34;71.59
84271;BME280;74614;50.032;19.566;2024-02-21T03:43:30;99223.55;;;5.36;71.53
84271;BME280;74614;50.032;19.566;2024-02-21T03:45:27;99218.08;;;5.37;71.51
84271;BME280;74614;50.032;19.566;2024-02-21T03:47:26;99219.35;;;5.37;71.44
84271;BME280;74614;50.032;19.566;2024-02-21T03:49:27;99213.04;;;5.37;71.41
84271;BME280;74614;50.032;19.566;2024-02-21T03:51:40;99215.08;;;5.39;71.38
84271;BME280;74614;50.032;19.566;2024-02-21T03:54:46;99219.34;;;5.44;71.27
84271;BME280;74614;50.032;19.566;2024-02-21T03:57:27;99216.00;;;5.44;71.15
84271;BME280;74614;50.032;19.566;2024-02-21T03:59:27;99220.95;;;5.42;71.23
84271;BME280;74614;50.032;19.566;2024-02-21T04:01:29;99219.33;;;5.44;71.16
84271;BME280;74614;50.032;19.566;2024-02-21T04:03:29;99223.00;;;5.52;71.15
84271;BME280;74614;50.032;19.566;2024-02-21T04:05:26;99219.52;;;5.56;71.03
84271;BME280;74614;50.032;19.566;2024-02-21T04:07:26;99214.19;;;5.55;70.89
84271;BME280;74614;50.032;19.566;2024-02-21T04:09:26;99210.34;;;5.55;70.79
84271;BME280;74614;50.032;19.566;2024-02-21T04:11:33;99208.89;;;5.53;70.71
84271;BME280;74614;50.032;19.566;2024-02-21T04:13:32;99209.59;;;5.56;70.78
84271;BME280;74614;50.032;19.566;2024-02-21T04:15:26;99206.58;;;5.59;70.70
84271;BME280;74614;50.032;19.566;2024-02-21T04:17:26;99205.38;;;5.61;70.66
84271;BME280;74614;50.032;19.566;2024-02-21T04:19:31;99205.63;;;5.66;70.59
84271;BME280;74614;50.032;19.566;2024-02-21T04:21:27;99200.57;;;5.67;70.52
84271;BME280;74614;50.032;19.566;2024-02-21T04:23:27;99205.44;;;5.63;70.51
84271;BME280;74614;50.032;19.566;2024-02-21T04:25:27;99203.76;;;5.62;70.56
84271;BME280;74614;50.032;19.566;2024-02-21T04:27:27;99204.68;;;5.58;70.55
84271;BME280;74614;50.032;19.566;2024-02-21T04:29:27;99195.82;;;5.52;70.43
84271;BME280;74614;50.032;19.566;2024-02-21T04:31:32;99197.91;;;5.49;70.43
84271;BME280;74614;50.032;19.566;2024-02-21T04:33:27;99195.24;;;5.46;70.48
84271;BME280;74614;50.032;19.566;2024-02-21T04:35:56;99196.86;;;5.41;70.46
84271;BME280;74614;50.032;19.566;2024-02-21T04:38:32;99195.05;;;5.40;70.76
84271;BME280;74614;50.032;19.566;2024-02-21T04:40:44;99195.90;;;5.35;70.83
84271;BME280;74614;50.032;19.566;2024-02-21T04:43:26;99195.44;;;5.36;70.90
84271;BME280;74614;50.032;19.566;2024-02-21T04:45:28;99197.25;;;5.37;70.99
84271;BME280;74614;50.032;19.566;2024-02-21T04:47:27;99191.58;;;5.37;70.99
84271;BME280;74614;50.032;19.566;2024-02-21T04:49:26;99197.08;;;5.37;70.89
84271;BME280;74614;50.032;19.566;2024-02-21T04:51:27;99194.54;;;5.35;70.96
84271;BME280;74614;50.032;19.566;2024-02-21T04:54:27;99192.31;;;5.38;71.04
84271;BME280;74614;50.032;19.566;2024-02-21T04:56:23;99192.33;;;5.38;71.13
84271;BME280;74614;50.032;19.566;2024-02-21T04:58:26;99189.94;;;5.39;71.10
84271;BME280;74614;50.032;19.566;2024-02-21T05:00:25;99184.49;;;5.40;71.18
84271;BME280;74614;50.032;19.566;2024-02-21T05:02:26;99179.71;;;5.41;71.15
84271;BME280;74614;50.032;19.566;2024-02-21T05:04:26;99180.97;;;5.42;71.09
84271;BME280;74614;50.032;19.566;2024-02-21T05:06:37;99187.61;;;5.44;70.99
84271;BME280;74614;50.032;19.566;2024-02-21T05:09:20;99188.44;;;5.44;71.09
84271;BME280;74614;50.032;19.566;2024-02-21T05:11:20;99187.29;;;5.47;71.01
84271;BME280;74614;50.032;19.566;2024-02-21T05:13:21;99190.58;;;5.51;71.04
84271;BME280;74614;50.032;19.566;2024-02-21T05:15:20;99185.50;;;5.54;71.06
84271;BME280;74614;50.032;19.566;2024-02-21T05:17:28;99190.63;;;5.56;70.93
84271;BME280;74614;50.032;19.566;2024-02-21T05:19:26;99186.24;;;5.58;70.96
84271;BME280;74614;50.032;19.566;2024-02-21T05:21:27;99181.22;;;5.56;70.93
84271;BME280;74614;50.032;19.566;2024-02-21T05:23:28;99179.39;;;5.56;70.86
84271;BME280;74614;50.032;19.566;2024-02-21T05:25:28;99182.33;;;5.56;70.79
84271;BME280;74614;50.032;19.566;2024-02-21T05:27:28;99186.05;;;5.55;70.83
84271;BME280;74614;50.032;19.566;2024-02-21T05:29:27;99183.68;;;5.56;70.85
84271;BME280;74614;50.032;19.566;2024-02-21T05:31:27;99185.08;;;5.54;70.89
84271;BME280;74614;50.032;19.566;2024-02-21T05:34:26;99181.63;;;5.53;70.89
84271;BME280;74614;50.032;19.566;2024-02-21T05:37:28;99177.75;;;5.58;70.95
84271;BME280;74614;50.032;19.566;2024-02-21T05:39:30;99171.13;;;5.60;70.91
84271;BME280;74614;50.032;19.566;2024-02-21T05:41:28;99174.88;;;5.69;70.87
84271;BME280;74614;50.032;19.566;2024-02-21T05:43:28;99179.51;;;5.74;70.75
84271;BME280;74614;50.032;19.566;2024-02-21T05:45:32;99176.14;;;5.86;70.56
84271;BME280;74614;50.032;19.566;2024-02-21T05:47:27;99174.44;;;5.86;70.55
84271;BME280;74614;50.032;19.566;2024-02-21T05:49:26;99170.29;;;5.88;70.61
84271;BME280;74614;50.032;19.566;2024-02-21T05:51:26;99166.86;;;5.88;70.22
84271;BME280;74614;50.032;19.566;2024-02-21T05:53:26;99161.65;;;5.79;70.39
84271;BME280;74614;50.032;19.566;2024-02-21T05:55:27;99160.15;;;5.77;70.47
84271;BME280;74614;50.032;19.566;2024-02-21T05:57:27;99162.80;;;5.78;70.51
84271;BME280;74614;50.032;19.566;2024-02-21T05:59:26;99163.10;;;5.79;70.60
84271;BME280;74614;50.032;19.566;2024-02-21T06:01:28;99159.92;;;5.85;70.28
84271;BME280;74614;50.032;19.566;2024-02-21T06:03:28;99155.13;;;5.79;69.91
84271;BME280;74614;50.032;19.566;2024-02-21T06:05:28;99157.53;;;5.71;70.18
84271;BME280;74614;50.032;19.566;2024-02-21T06:07:27;99161.13;;;5.64;70.33
84271;BME280;74614;50.032;19.566;2024-02-21T06:09:28;99158.17;;;5.60;70.55
84271;BME280;74614;50.032;19.566;2024-02-21T06:11:27;99163.32;;;5.54;70.16
84271;BME280;74614;50.032;19.566;2024-02-21T06:13:30;99163.55;;;5.42;70.05
84271;BME280;74614;50.032;19.566;2024-02-21T06:15:26;99166.34;;;5.29;69.74
84271;BME280;74614;50.032;19.566;2024-02-21T06:17:28;99164.21;;;5.19;69.74
84271;BME280;74614;50.032;19.566;2024-02-21T06:19:27;99160.85;;;5.15;70.10
84271;BME280;74614;50.032;19.566;2024-02-21T06:21:29;99163.24;;;5.23;70.37
84271;BME280;74614;50.032;19.566;2024-02-21T06:23:31;99160.22;;;5.31;70.17
84271;BME280;74614;50.032;19.566;2024-02-21T06:25:30;99155.42;;;5.31;69.59
84271;BME280;74614;50.032;19.566;2024-02-21T06:27:28;99158.61;;;5.29;69.65
84271;BME280;74614;50.032;19.566;2024-02-21T06:29:28;99159.47;;;5.37;70.70
84271;BME280;74614;50.032;19.566;2024-02-21T06:31:28;99159.93;;;5.41;70.21
84271;BME280;74614;50.032;19.566;2024-02-21T06:33:32;99154.24;;;5.40;69.95
84271;BME280;74614;50.032;19.566;2024-02-21T06:35:27;99164.21;;;5.44;70.17
84271;BME280;74614;50.032;19.566;2024-02-21T06:37:28;99156.80;;;5.48;70.06
84271;BME280;74614;50.032;19.566;2024-02-21T06:39:29;99157.87;;;5.50;70.12
84271;BME280;74614;50.032;19.566;2024-02-21T06:41:27;99157.74;;;5.55;70.25
84271;BME280;74614;50.032;19.566;2024-02-21T06:43:29;99154.39;;;5.57;70.34
84271;BME280;74614;50.032;19.566;2024-02-21T06:45:27;99157.32;;;5.63;70.36
84271;BME280;74614;50.032;19.566;2024-02-21T06:47:29;99155.29;;;5.71;70.25
84271;BME280;74614;50.032;19.566;2024-02-21T06:49:26;99158.69;;;5.81;70.27
84271;BME280;74614;50.032;19.566;2024-02-21T06:51:32;99158.53;;;6.03;70.15
84271;BME280;74614;50.032;19.566;2024-02-21T06:54:29;99159.54;;;6.11;69.91
84271;BME280;74614;50.032;19.566;2024-02-21T06:57:37;99156.15;;;6.41;69.94
84271;BME280;74614;50.032;19.566;2024-02-21T07:00:53;99154.54;;;6.84;68.21
84271;BME280;74614;50.032;19.566;2024-02-21T07:03:37;99153.97;;;6.85;67.38
84271;BME280;74614;50.032;19.566;2024-02-21T07:08:03;99149.22;;;7.09;66.27
84271;BME280;74614;50.032;19.566;2024-02-21T07:10:49;99147.97;;;7.29;66.11
84271;BME280;74614;50.032;19.566;2024-02-21T07:13:31;99143.32;;;7.50;64.71
84271;BME280;74614;50.032;19.566;2024-02-21T07:15:33;99142.13;;;7.74;64.12
84271;BME280;74614;50.032;19.566;2024-02-21T07:17:36;99137.40;;;7.87;62.68
84271;BME280;74614;50.032;19.566;2024-02-21T07:20:20;99141.12;;;7.89;62.86
84271;BME280;74614;50.032;19.566;2024-02-21T07:22:31;99143.88;;;7.85;63.11
84271;BME280;74614;50.032;19.566;2024-02-21T07:25:20;99139.79;;;7.78;62.35
84271;BME280;74614;50.032;19.566;2024-02-21T07:27:21;99138.40;;;7.96;63.49
84271;BME280;74614;50.032;19.566;2024-02-21T07:29:19;99133.34;;;8.11;63.63
84271;BME280;74614;50.032;19.566;2024-02-21T07:31:20;99134.51;;;8.25;62.21
84271;BME280;74614;50.032;19.566;2024-02-21T07:33:21;99127.74;;;8.32;62.27
84271;BME280;74614;50.032;19.566;2024-02-21T07:35:21;99128.27;;;8.37;61.67
84271;BME280;74614;50.032;19.566;2024-02-21T07:37:31;99131.11;;;8.43;62.69
84271;BME280;74614;50.032;19.566;2024-02-21T07:39:29;99127.57;;;8.36;61.62
84271;BME280;74614;50.032;19.566;2024-02-21T07:41:35;99124.72;;;8.04;61.05
84271;BME280;74614;50.032;19.566;2024-02-21T07:43:30;99127.06;;;7.87;62.62
84271;BME280;74614;50.032;19.566;2024-02-21T07:45:35;99127.03;;;7.76;63.01
84271;BME280;74614;50.032;19.566;2024-02-21T07:48:28;99129.48;;;7.66;64.16
84271;BME280;74614;50.032;19.566;2024-02-21T07:50:46;99127.93;;;7.57;63.75
84271;BME280;74614;50.032;19.566;2024-02-21T07:54:23;99128.75;;;7.43;63.89
84271;BME280;74614;50.032;19.566;2024-02-21T07:57:54;99128.70;;;7.41;64.53
84271;BME280;74614;50.032;19.566;2024-02-21T07:58:50;99129.68;;;7.43;64.57
84271;BME280;74614;50.032;19.566;2024-02-21T08:03:49;99122.97;;;7.42;64.13
84271;BME280;74614;50.032;19.566;2024-02-21T08:03:50;99122.97;;;7.42;64.13
84271;BME280;74614;50.032;19.566;2024-02-21T08:06:26;99116.72;;;7.40;63.21
84271;BME280;74614;50.032;19.566;2024-02-21T08:08:28;99114.43;;;7.54;63.63
84271;BME280;74614;50.032;19.566;2024-02-21T08:10:25;99111.51;;;7.47;62.21
84271;BME280;74614;50.032;19.566;2024-02-21T08:12:26;99112.52;;;7.50;63.26
84271;BME280;74614;50.032;19.566;2024-02-21T08:14:27;99115.75;;;7.59;63.78
84271;BME280;74614;50.032;19.566;2024-02-21T08:16:27;99115.91;;;7.64;64.35
84271;BME280;74614;50.032;19.566;2024-02-21T08:18:28;99114.56;;;7.69;63.80
84271;BME280;74614;50.032;19.566;2024-02-21T08:20:27;99118.18;;;7.79;63.80
84271;BME280;74614;50.032;19.566;2024-02-21T08:22:27;99112.56;;;7.89;64.10
84271;BME280;74614;50.032;19.566;2024-02-21T08:24:30;99109.09;;;7.93;62.61
84271;BME280;74614;50.032;19.566;2024-02-21T08:26:29;99106.09;;;7.94;63.41
84271;BME280;74614;50.032;19.566;2024-02-21T08:28:28;99103.52;;;7.93;63.09
84271;BME280;74614;50.032;19.566;2024-02-21T08:30:26;99099.33;;;7.91;63.55
84271;BME280;74614;50.032;19.566;2024-02-21T08:32:31;99100.46;;;7.74;62.38
84271;BME280;74614;50.032;19.566;2024-02-21T08:34:28;99097.77;;;7.69;62.97
84271;BME280;74614;50.032;19.566;2024-02-21T08:36:26;99091.95;;;7.62;63.78
84271;BME280;74614;50.032;19.566;2024-02-21T08:38:40;99086.79;;;7.61;62.96
84271;BME280;74614;50.032;19.566;2024-02-21T08:41:21;99076.01;;;7.69;63.56
84271;BME280;74614;50.032;19.566;2024-02-21T08:43:26;99070.01;;;7.66;63.63
84271;BME280;74614;50.032;19.566;2024-02-21T08:45:20;99074.80;;;7.72;62.85
84271;BME280;74614;50.032;19.566;2024-02-21T08:47:26;99074.93;;;7.80;63.01
84271;BME280;74614;50.032;19.566;2024-02-21T08:49:19;99077.07;;;7.93;62.24
84271;BME280;74614;50.032;19.566;2024-02-21T08:51:26;99074.32;;;8.07;63.17
84271;BME280;74614;50.032;19.566;2024-02-21T08:54:34;99068.13;;;8.27;59.52
84271;BME280;74614;50.032;19.566;2024-02-21T08:56:27;99068.86;;;8.34;59.95
84271;BME280;74614;50.032;19.566;2024-02-21T08:58:32;99062.03;;;8.32;59.41
84271;BME280;74614;50.032;19.566;2024-02-21T09:00:35;99066.36;;;8.45;59.00
84271;BME280;74614;50.032;19.566;2024-02-21T09:03:34;99066.71;;;8.55;58.29
84271;BME280;74614;50.032;19.566;2024-02-21T09:05:27;99066.20;;;8.84;59.49
84271;BME280;74614;50.032;19.566;2024-02-21T09:07:32;99066.36;;;8.89;57.80
84271;BME280;74614;50.032;19.566;2024-02-21T09:09:31;99064.02;;;9.08;57.14
84271;BME280;74614;50.032;19.566;2024-02-21T09:11:39;99059.19;;;9.33;58.04
84271;BME280;74614;50.032;19.566;2024-02-21T09:14:29;99060.83;;;9.19;57.58
84271;BME280;74614;50.032;19.566;2024-02-21T09:16:27;99065.81;;;9.18;57.62
84271;BME280;74614;50.032;19.566;2024-02-21T09:18:27;99065.11;;;9.23;57.02
84271;BME280;74614;50.032;19.566;2024-02-21T09:20:30;99063.59;;;9.28;57.74
84271;BME280;74614;50.032;19.566;2024-02-21T09:22:29;99061.93;;;9.27;56.60
84271;BME280;74614;50.032;19.566;2024-02-21T09:24:32;99066.15;;;9.46;58.49
84271;BME280;74614;50.032;19.566;2024-02-21T09:26:33;99067.38;;;9.62;58.08
84271;BME280;74614;50.032;19.566;2024-02-21T09:28:29;99068.33;;;9.53;56.45
84271;BME280;74614;50.032;19.566;2024-02-21T09:30:29;99073.02;;;9.56;57.46
84271;BME280;74614;50.032;19.566;2024-02-21T09:32:28;99068.59;;;9.34;56.69
84271;BME280;74614;50.032;19.566;2024-02-21T09:34:27;99066.25;;;9.39;58.25
84271;BME280;74614;50.032;19.566;2024-02-21T09:36:30;99064.49;;;9.36;56.77
84271;BME280;74614;50.032;19.566;2024-02-21T09:38:28;99060.99;;;9.13;56.85
84271;BME280;74614;50.032;19.566;2024-02-21T09:40:29;99064.67;;;9.22;58.63
84271;BME280;74614;50.032;19.566;2024-02-21T09:42:36;99062.57;;;9.10;57.45
84271;BME280;74614;50.032;19.566;2024-02-21T09:44:36;99064.20;;;9.14;57.93
84271;BME280;74614;50.032;19.566;2024-02-21T09:47:37;99073.17;;;9.14;58.68
84271;BME280;74614;50.032;19.566;2024-02-21T09:50:31;99070.23;;;8.83;57.03
84271;BME280;74614;50.032;19.566;2024-02-21T09:52:28;99062.81;;;8.87;57.65
84271;BME280;74614;50.032;19.566;2024-02-21T09:54:29;99069.42;;;8.92;58.77
84271;BME280;74614;50.032;19.566;2024-02-21T09:56:28;99066.50;;;8.99;56.96
84271;BME280;74614;50.032;19.566;2024-02-21T09:58:33;99057.43;;;9.11;57.55
84271;BME280;74614;50.032;19.566;2024-02-21T10:00:29;99060.80;;;9.17;56.74
84271;BME280;74614;50.032;19.566;2024-02-21T10:02:28;99055.02;;;9.25;56.54
84271;BME280;74614;50.032;19.566;2024-02-21T10:04:29;99057.89;;;9.47;55.49
84271;BME280;74614;50.032;19.566;2024-02-21T10:06:28;99045.59;;;9.66;55.14
84271;BME280;74614;50.032;19.566;2024-02-21T10:08:26;99043.78;;;9.66;55.57
84271;BME280;74614;50.032;19.566;2024-02-21T10:10:28;99049.87;;;9.55;55.91
84271;BME280;74614;50.032;19.566;2024-02-21T10:12:28;99053.26;;;9.50;56.33
84271;BME280;74614;50.032;19.566;2024-02-21T10:14:27;99048.68;;;9.43;54.77
84271;BME280;74614;50.032;19.566;2024-02-21T10:16:29;99040.78;;;9.52;56.23
84271;BME280;74614;50.032;19.566;2024-02-21T10:18:32;99036.89;;;9.61;55.50
84271;BME280;74614;50.032;19.566;2024-02-21T10:20:27;99036.30;;;9.78;55.79
84271;BME280;74614;50.032;19.566;2024-02-21T10:22:28;99032.77;;;10.21;55.36
84271;BME280;74614;50.032;19.566;2024-02-21T10:24:28;99028.74;;;10.15;53.77
84271;BME280;74614;50.032;19.566;2024-02-21T10:26:26;99030.81;;;10.15;54.96
84271;BME280;74614;50.032;19.566;2024-02-21T10:28:31;99026.98;;;10.12;54.06
84271;BME280;74614;50.032;19.566;2024-02-21T10:30:28;99027.29;;;10.09;54.76
84271;BME280;74614;50.032;19.566;2024-02-21T10:32:32;99024.71;;;10.22;54.60
84271;BME280;74614;50.032;19.566;2024-02-21T10:34:26;99018.55;;;10.07;54.10
84271;BME280;74614;50.032;19.566;2024-02-21T10:36:30;99020.71;;;9.86;54.77
84271;BME280;74614;50.032;19.566;2024-02-21T10:38:29;99018.19;;;10.06;55.46
84271;BME280;74614;50.032;19.566;2024-02-21T10:40:29;99004.09;;;10.11;54.06
84271;BME280;74614;50.032;19.566;2024-02-21T10:42:30;99010.59;;;10.02;54.17
84271;BME280;74614;50.032;19.566;2024-02-21T10:44:32;99010.86;;;10.08;54.67
84271;BME280;74614;50.032;19.566;2024-02-21T10:47:40;99007.52;;;9.99;54.21
84271;BME280;74614;50.032;19.566;2024-02-21T10:50:28;99002.61;;;9.91;54.45
84271;BME280;74614;50.032;19.566;2024-02-21T10:52:44;99003.77;;;10.03;55.26
84271;BME280;74614;50.032;19.566;2024-02-21T10:55:35;98995.99;;;10.02;54.79
84271;BME280;74614;50.032;19.566;2024-02-21T10:58:31;98995.07;;;9.47;54.24
84271;BME280;74614;50.032;19.566;2024-02-21T11:00:38;98997.04;;;9.54;54.68
84271;BME280;74614;50.032;19.566;2024-02-21T11:03:39;98997.58;;;9.65;56.14
84271;BME280;74614;50.032;19.566;2024-02-21T11:06:29;98994.80;;;9.53;55.58
84271;BME280;74614;50.032;19.566;2024-02-21T11:08:31;98993.83;;;9.36;55.07
84271;BME280;74614;50.032;19.566;2024-02-21T11:10:29;98986.35;;;9.38;55.39
84271;BME280;74614;50.032;19.566;2024-02-21T11:12:33;98986.49;;;9.61;56.55
84271;BME280;74614;50.032;19.566;2024-02-21T11:14:30;98985.34;;;9.82;56.19
84271;BME280;74614;50.032;19.566;2024-02-21T11:16:35;98982.77;;;9.50;55.01
84271;BME280;74614;50.032;19.566;2024-02-21T11:18:30;98976.44;;;9.58;55.25
84271;BME280;74614;50.032;19.566;2024-02-21T11:20:33;98975.38;;;9.54;55.16